Thursday, August 16, 2018, 1:57 AM EDT
Back to Local

KMTP, Montauk Airport

Location: Montauk, NY, United States Lat: 41.067
Local Time: 1:57 AM EDT ( 5:57 GMT) Lon: -71.917
Time Zone: US/Eastern Elev: 6 ft

Show me the last for .
Show Decoded

2018-08-16 00:54 METAR KMTP 160454Z AUTO 26004KT 26/21 A2996 RMK AO1 SLP144 T02560211 402940222 =
2018-08-15 23:54 METAR KMTP 160354Z AUTO 24004KT 26/21 A2996 RMK AO1 SLP145 T02610206 =
2018-08-15 22:54 METAR KMTP 160254Z AUTO 00000KT 26/21 A2996 RMK AO1 SLP144 T02560211 50014 =
2018-08-15 21:54 METAR KMTP 160154Z AUTO 24004KT 26/22 A2996 RMK AO1 SLP146 T02560217 =
2018-08-15 20:54 METAR KMTP 160054Z AUTO 24006KT 26/22 A2994 RMK AO1 SLP140 T02610222 =
2018-08-15 19:54 METAR KMTP 152354Z AUTO 25004KT 27/21 A2992 RMK AO1 SLP131 T02720211 10294 20272
                 53012 =
2018-08-15 18:54 METAR KMTP 152254Z AUTO 25006KT 28/21 A2990 RMK AO1 SLP124 T02830211 =
2018-08-15 17:54 METAR KMTP 152154Z AUTO 25006KT 28/22 A2989 RMK AO1 SLP121 T02830217 =
2018-08-15 16:54 METAR KMTP 152054Z AUTO 26007KT 29/22 A2988 RMK AO1 SLP119 T02890217 58001 =
2018-08-15 15:54 METAR KMTP 151954Z AUTO 27008KT 29/22 A2989 RMK AO1 SLP120 T02890217 =
2018-08-15 14:54 METAR KMTP 151854Z AUTO 27009KT 28/21 A2989 RMK AO1 SLP122 T02830211 =
2018-08-15 13:54 METAR KMTP 151754Z AUTO 27008KT 28/21 A2989 RMK AO1 SLP120 T02780211 10278 20228
                 51003 =
2018-08-15 12:54 METAR KMTP 151654Z AUTO 27009KT 27/21 A2989 RMK AO1 SLP120 T02720211 =
2018-08-15 11:54 METAR KMTP 151554Z AUTO 29008KT 26/21 A2989 RMK AO1 SLP120 T02610211 =
2018-08-15 10:54 METAR KMTP 151454Z AUTO 28007KT 25/21 A2988 RMK AO1 SLP117 T02500206 51006 =
2018-08-15 09:54 METAR KMTP 151354Z AUTO 29006KT 24/21 A2988 RMK AO1 SLP116 T02440211 =
2018-08-15 08:54 METAR KMTP 151254Z AUTO 30005KT 24/21 A2986 RMK AO1 SLP112 T02390211 =
2018-08-15 07:54 METAR KMTP 151154Z AUTO 28005KT 23/22 A2986 RMK AO1 SLP111 T02330217 10233 20222
                 53009 =
2018-08-15 06:54 METAR KMTP 151054Z AUTO 00000KT 22/22 A2984 RMK AO1 SLP106 T02220217 =
2018-08-15 05:54 METAR KMTP 150954Z AUTO 26003KT 23/22 A2983 RMK AO1 SLP102 T02280217 =
2018-08-15 04:54 METAR KMTP 150854Z AUTO 23004KT 23/21 A2983 RMK AO1 SLP101 T02280211 56004 =
2018-08-15 03:54 METAR KMTP 150754Z AUTO 22003KT 23/22 A2983 RMK AO1 SLP102 T02280217 =
2018-08-15 02:54 METAR KMTP 150654Z AUTO 25006KT 23/21 A2984 RMK AO1 SLP105 T02280211 =

Support USWX by starting your Amazon purchase here.